Time;durP1;ratioP1;P1;durP2;ratioP2;P2;SDS_P1;SDS_P2;PMS_P1;PMS_P2;Temp;Humidity;BMP_temperature;BMP_pressure;BME280_temperature;BME280_humidity;BME280_pressure;Samples;Min_cycle;Max_cycle;Signal;HPM_P1;HPM_P2
2023/08/24 00:01:12;;;;;;;;;;;;;;;;;;4978573;28;20464;-86
2023/08/24 00:03:38;;;;;;;;;;;;;;;;;;4957901;28;20040;-85
2023/08/24 00:06:10;;;;;;;;;;;;;;;;;;4965156;28;19953;-85
2023/08/24 00:08:36;;;;;;;;;;;;;;;;;;4958306;28;19921;-86
2023/08/24 00:11:02;;;;;;;;;;;;;;;;;;4956355;28;19965;-85
2023/08/24 00:13:27;;;;;;;;;;;;;;;;;;4958793;28;19964;-85
2023/08/24 00:15:53;;;;;;;;;;;;;;;;;;4955370;28;19926;-86
2023/08/24 00:18:19;;;;;;;;;;;;;;;;;;4955405;28;19914;-85
2023/08/24 00:20:47;;;;;;;;;;;;;;;;;;4956805;28;20306;-85
2023/08/24 00:23:13;;;;;;;;;;;;;;;;;;4962989;28;19918;-86
2023/08/24 00:25:38;;;;;;;;;;;;;;;;;;4955584;28;20884;-84
2023/08/24 00:28:05;;;;;;;;;;;;;;;;;;4965024;28;19965;-85
2023/08/24 00:30:30;;;;;;;;;;;;;;;;;;4945101;28;19968;-85
2023/08/24 00:32:55;;;;;;;;;;;;;;;;;;4976870;28;20267;-85
2023/08/24 00:35:27;;;;;;;;;;;;;;;;;;4965433;28;19914;-85
2023/08/24 00:37:52;;;;;;;;;;;;;;;;;;4971331;28;19964;-85
2023/08/24 00:40:18;;;;;;;;;;;;;;;;;;4948380;28;19918;-84
2023/08/24 00:42:44;;;;;;;;;;;;;;;;;;4962888;28;19929;-85
2023/08/24 00:45:10;;;;;;;;;;;;;;;;;;4965199;28;19957;-86
2023/08/24 00:47:39;;;;;;;;;;;;;;;;;;4965004;28;20398;-86
2023/08/24 00:50:05;;;;;;;;;;;;;;;;;;4946397;28;19918;-86
2023/08/24 00:52:31;;;;;;;;;;;;;;;;;;4960349;28;19928;-86
2023/08/24 00:54:56;;;;;;;;;;;;;;;;;;4981377;28;19965;-85
2023/08/24 00:57:21;;;;;;;;;;;;;;;;;;4973839;28;19918;-83
2023/08/24 00:59:47;;;;;;;;;;;;;;;;;;4948079;28;19932;-85
2023/08/24 01:02:12;;;;;;;;;;;;;;;;;;4951381;28;20333;-85
2023/08/24 01:04:37;;;;;;;;;;;;;;;;;;4979195;28;19922;-84
2023/08/24 01:07:03;;;;;;;;;;;;;;;;;;4959759;28;20387;-86
2023/08/24 01:09:28;;;;;;;;;;;;;;;;;;4968629;28;19921;-86
2023/08/24 01:12:19;;;;;;;;;;;;;;;;;;4969637;28;20559;-85
2023/08/24 01:14:44;;;;;;;;;;;;;;;;;;4984178;28;19918;-84
2023/08/24 01:17:10;;;;;;;;;;;;;;;;;;4975071;28;19922;-86
2023/08/24 01:19:41;;;;;;;;;;;;;;;;;;4975879;28;19914;-87
2023/08/24 01:22:39;;;;;;;;;;;;;;;;;;4961932;28;19917;-86
2023/08/24 01:25:05;;;;;;;;;;;;;;;;;;4941781;28;19922;-86
2023/08/24 01:27:30;;;;;;;;;;;;;;;;;;4975846;28;20099;-85
2023/08/24 01:29:56;;;;;;;;;;;;;;;;;;4959887;28;19979;-85
2023/08/24 01:32:22;;;;;;;;;;;;;;;;;;4952804;28;19918;-85
2023/08/24 01:34:49;;;;;;;;;;;;;;;;;;4968544;28;19924;-86
2023/08/24 01:37:15;;;;;;;;;;;;;;;;;;4957873;28;19960;-85
2023/08/24 01:39:40;;;;;;;;;;;;;;;;;;4985521;28;19944;-85
2023/08/24 01:42:05;;;;;;;;;;;;;;;;;;4977487;28;19914;-86
2023/08/24 01:44:32;;;;;;;;;;;;;;;;;;4975486;28;19926;-86
2023/08/24 01:46:57;;;;;;;;;;;;;;;;;;4967409;28;19992;-85
2023/08/24 01:49:23;;;;;;;;;;;;;;;;;;4957597;28;20362;-85
2023/08/24 01:51:48;;;;;;;;;;;;;;;;;;4966211;28;19918;-85
2023/08/24 01:54:13;;;;;;;;;;;;;;;;;;4959882;28;19918;-86
2023/08/24 01:56:38;;;;;;;;;;;;;;;;;;4983789;28;19918;-83
2023/08/24 01:59:04;;;;;;;;;;;;;;;;;;4961143;28;19972;-86
2023/08/24 02:01:29;;;;;;;;;;;;;;;;;;4957160;28;19918;-85
2023/08/24 02:03:55;;;;;;;;;;;;;;;;;;4957469;28;19917;-85
2023/08/24 02:06:21;;;;;;;;;;;;;;;;;;4967502;28;20296;-85
2023/08/24 02:08:47;;;;;;;;;;;;;;;;;;4957326;28;19928;-86
2023/08/24 02:11:12;;;;;;;;;;;;;;;;;;4976259;28;19945;-86
2023/08/24 02:13:37;;;;;;;;;;;;;;;;;;4953411;28;20239;-86
2023/08/24 02:16:06;;;;;;;;;;;;;;;;;;4974178;28;19918;-85
2023/08/24 02:18:31;;;;;;;;;;;;;;;;;;4972685;28;21109;-85
2023/08/24 02:20:56;;;;;;;;;;;;;;;;;;4965224;28;19996;-85
2023/08/24 02:23:22;;;;;;;;;;;;;;;;;;4959769;28;19925;-84
2023/08/24 02:25:47;;;;;;;;;;;;;;;;;;4966406;28;19921;-85
2023/08/24 02:28:20;;;;;;;;;;;;;;;;;;4984027;28;19914;-85
2023/08/24 02:30:46;;;;;;;;;;;;;;;;;;4964282;28;19914;-85
2023/08/24 02:33:11;;;;;;;;;;;;;;;;;;4964623;28;20755;-85
2023/08/24 02:35:36;;;;;;;;;;;;;;;;;;4958700;28;19922;-85
2023/08/24 02:38:02;;;;;;;;;;;;;;;;;;4980168;28;20001;-86
2023/08/24 02:40:28;;;;;;;;;;;;;;;;;;4979009;28;19914;-86
2023/08/24 02:42:53;;;;;;;;;;;;;;;;;;4946763;28;19925;-85
2023/08/24 02:45:18;;;;;;;;;;;;;;;;;;4949674;28;19925;-84
2023/08/24 02:47:43;;;;;;;;;;;;;;;;;;4974780;28;19918;-85
2023/08/24 02:50:09;;;;;;;;;;;;;;;;;;4981706;28;19960;-85
2023/08/24 02:52:34;;;;;;;;;;;;;;;;;;4972663;28;19922;-86
2023/08/24 02:54:59;;;;;;;;;;;;;;;;;;4989420;28;19949;-85
2023/08/24 02:57:25;;;;;;;;;;;;;;;;;;4961568;28;20392;-85
2023/08/24 02:59:50;;;;;;;;;;;;;;;;;;4975713;28;19940;-86
2023/08/24 03:02:15;;;;;;;;;;;;;;;;;;4949280;28;19920;-85
2023/08/24 03:04:40;;;;;;;;;;;;;;;;;;4957808;28;19917;-85
2023/08/24 03:07:07;;;;;;;;;;;;;;;;;;4965056;28;20366;-86
2023/08/24 03:09:36;;;;;;;;;;;;;;;;;;4974672;28;20364;-86
2023/08/24 03:12:02;;;;;;;;;;;;;;;;;;4970706;28;20029;-84
2023/08/24 03:14:27;;;;;;;;;;;;;;;;;;4952056;28;20380;-86
2023/08/24 03:16:53;;;;;;;;;;;;;;;;;;4960623;28;20374;-85
2023/08/24 03:19:18;;;;;;;;;;;;;;;;;;4959867;28;19924;-86
2023/08/24 03:21:43;;;;;;;;;;;;;;;;;;4956247;28;19918;-86
2023/08/24 03:24:09;;;;;;;;;;;;;;;;;;4956368;28;20319;-86
2023/08/24 03:26:34;;;;;;;;;;;;;;;;;;4964988;28;20337;-85
2023/08/24 03:28:59;;;;;;;;;;;;;;;;;;4970219;28;19949;-85
2023/08/24 03:31:26;;;;;;;;;;;;;;;;;;4974548;28;20389;-84
2023/08/24 03:33:51;;;;;;;;;;;;;;;;;;4977793;28;20398;-85
2023/08/24 03:36:16;;;;;;;;;;;;;;;;;;4989087;28;19917;-84
2023/08/24 03:38:44;;;;;;;;;;;;;;;;;;4981763;28;19917;-82
2023/08/24 03:41:09;;;;;;;;;;;;;;;;;;4987585;28;19914;-86
2023/08/24 03:43:35;;;;;;;;;;;;;;;;;;4982212;28;20326;-86
2023/08/24 03:46:00;;;;;;;;;;;;;;;;;;4963944;28;20029;-86
2023/08/24 03:48:26;;;;;;;;;;;;;;;;;;4989223;28;20012;-85
2023/08/24 03:51:00;;;;;;;;;;;;;;;;;;4987778;28;19918;-85
2023/08/24 03:53:26;;;;;;;;;;;;;;;;;;4966601;28;19917;-86
2023/08/24 03:55:51;;;;;;;;;;;;;;;;;;4964421;28;19969;-85
2023/08/24 03:58:17;;;;;;;;;;;;;;;;;;4972406;28;19973;-85
2023/08/24 04:00:44;;;;;;;;;;;;;;;;;;4955250;28;19918;-85
2023/08/24 04:03:10;;;;;;;;;;;;;;;;;;4976564;28;20646;-86
2023/08/24 04:05:35;;;;;;;;;;;;;;;;;;4959379;28;19973;-86
2023/08/24 04:08:00;;;;;;;;;;;;;;;;;;4977235;28;20350;-86
2023/08/24 04:10:26;;;;;;;;;;;;;;;;;;4966461;28;19928;-86
2023/08/24 04:12:51;;;;;;;;;;;;;;;;;;4956300;28;19914;-86
2023/08/24 04:15:17;;;;;;;;;;;;;;;;;;4987916;28;19917;-86
2023/08/24 04:17:42;;;;;;;;;;;;;;;;;;4964410;28;19945;-85
2023/08/24 04:20:07;;;;;;;;;;;;;;;;;;4961563;28;19917;-82
2023/08/24 04:22:33;;;;;;;;;;;;;;;;;;4980510;28;19918;-85
2023/08/24 04:24:58;;;;;;;;;;;;;;;;;;4955033;28;20354;-85
2023/08/24 04:27:23;;;;;;;;;;;;;;;;;;4965396;28;20289;-86
2023/08/24 04:29:49;;;;;;;;;;;;;;;;;;4955337;28;19953;-85
2023/08/24 04:32:14;;;;;;;;;;;;;;;;;;4960342;28;19976;-85
2023/08/24 04:34:41;;;;;;;;;;;;;;;;;;4979855;28;20039;-84
2023/08/24 04:37:06;;;;;;;;;;;;;;;;;;4978752;28;19917;-84
2023/08/24 04:39:32;;;;;;;;;;;;;;;;;;4977748;28;20036;-85
2023/08/24 04:41:57;;;;;;;;;;;;;;;;;;4974308;28;19920;-83
2023/08/24 04:44:23;;;;;;;;;;;;;;;;;;4992077;28;20032;-83
2023/08/24 04:46:49;;;;;;;;;;;;;;;;;;4967867;28;20008;-84
2023/08/24 04:49:14;;;;;;;;;;;;;;;;;;4966998;28;19928;-84
2023/08/24 04:51:45;;;;;;;;;;;;;;;;;;4983418;28;20659;-84
2023/08/24 04:54:11;;;;;;;;;;;;;;;;;;4968029;28;19918;-85
2023/08/24 04:56:36;;;;;;;;;;;;;;;;;;4968332;28;19914;-86
2023/08/24 04:59:02;;;;;;;;;;;;;;;;;;4960423;28;19921;-85
2023/08/24 05:01:28;;;;;;;;;;;;;;;;;;4968263;28;20604;-85
2023/08/24 05:03:53;;;;;;;;;;;;;;;;;;4963102;28;19954;-85
2023/08/24 05:06:21;;;;;;;;;;;;;;;;;;4973168;28;19918;-85
2023/08/24 05:08:46;;;;;;;;;;;;;;;;;;4969368;28;19930;-85
2023/08/24 05:11:13;;;;;;;;;;;;;;;;;;4985217;28;19928;-84
2023/08/24 05:13:38;;;;;;;;;;;;;;;;;;4959661;28;19918;-85
2023/08/24 05:16:04;;;;;;;;;;;;;;;;;;4976871;28;20255;-85
2023/08/24 05:18:29;;;;;;;;;;;;;;;;;;4959349;28;20271;-85
2023/08/24 05:20:54;;;;;;;;;;;;;;;;;;4983321;28;19933;-83
2023/08/24 05:23:20;;;;;;;;;;;;;;;;;;4959576;28;19938;-84
2023/08/24 05:25:45;;;;;;;;;;;;;;;;;;4950698;28;19988;-83
2023/08/24 05:28:10;;;;;;;;;;;;;;;;;;4968768;28;20057;-85
2023/08/24 05:30:35;;;;;;;;;;;;;;;;;;4982840;28;19945;-86
2023/08/24 05:33:01;;;;;;;;;;;;;;;;;;4968973;28;19950;-85
2023/08/24 05:35:28;;;;;;;;;;;;;;;;;;4983185;28;20000;-86
2023/08/24 05:37:54;;;;;;;;;;;;;;;;;;4976294;28;19926;-86
2023/08/24 05:40:19;;;;;;;;;;;;;;;;;;4980914;28;19952;-84
2023/08/24 05:42:44;;;;;;;;;;;;;;;;;;4957783;28;19921;-84
2023/08/24 05:45:11;;;;;;;;;;;;;;;;;;4991369;28;19914;-84
2023/08/24 05:47:37;;;;;;;;;;;;;;;;;;4972082;28;19914;-82
2023/08/24 05:50:02;;;;;;;;;;;;;;;;;;4949204;28;19919;-84
2023/08/24 05:52:27;;;;;;;;;;;;;;;;;;4948322;28;19925;-80
2023/08/24 05:54:53;;;;;;;;;;;;;;;;;;4961995;28;19924;-80
2023/08/24 05:57:18;;;;;;;;;;;;;;;;;;4972650;28;19914;-80
2023/08/24 05:59:43;;;;;;;;;;;;;;;;;;4973698;28;19917;-80
2023/08/24 06:02:08;;;;;;;;;;;;;;;;;;4974295;28;19925;-81
2023/08/24 06:04:34;;;;;;;;;;;;;;;;;;4962292;28;20275;-80
2023/08/24 06:07:06;;;;;;;;;;;;;;;;;;4972644;28;20321;-80
2023/08/24 06:09:32;;;;;;;;;;;;;;;;;;4957717;28;21072;-79
2023/08/24 06:11:57;;;;;;;;;;;;;;;;;;4974244;28;19918;-84
2023/08/24 06:14:22;;;;;;;;;;;;;;;;;;4964346;28;19921;-80
2023/08/24 06:16:48;;;;;;;;;;;;;;;;;;4958699;28;19925;-80
2023/08/24 06:19:14;;;;;;;;;;;;;;;;;;4957988;28;19921;-80
2023/08/24 06:21:39;;;;;;;;;;;;;;;;;;4958043;28;20660;-80
2023/08/24 06:24:04;;;;;;;;;;;;;;;;;;4982221;28;19928;-81
2023/08/24 06:26:34;;;;;;;;;;;;;;;;;;4957059;28;20008;-80
2023/08/24 06:28:59;;;;;;;;;;;;;;;;;;4949529;28;19960;-81
2023/08/24 06:31:25;;;;;;;;;;;;;;;;;;4966687;28;19953;-80
2023/08/24 06:33:50;;;;;;;;;;;;;;;;;;4964337;28;20012;-79
2023/08/24 06:36:15;;;;;;;;;;;;;;;;;;4938738;28;19925;-80
2023/08/24 06:38:41;;;;;;;;;;;;;;;;;;4956405;28;19913;-79
2023/08/24 06:41:08;;;;;;;;;;;;;;;;;;4965853;28;19924;-80
2023/08/24 06:43:34;;;;;;;;;;;;;;;;;;4954705;28;20357;-80
2023/08/24 06:46:02;;;;;;;;;;;;;;;;;;4964563;28;19918;-80
2023/08/24 06:48:28;;;;;;;;;;;;;;;;;;4958275;28;20408;-80
2023/08/24 06:50:53;;;;;;;;;;;;;;;;;;4957043;28;19914;-80
2023/08/24 06:53:18;;;;;;;;;;;;;;;;;;4960626;28;19953;-80
2023/08/24 06:55:43;;;;;;;;;;;;;;;;;;4965760;28;19918;-80
2023/08/24 06:58:09;;;;;;;;;;;;;;;;;;4965970;28;19976;-81
2023/08/24 07:00:35;;;;;;;;;;;;;;;;;;4954920;28;20029;-80
2023/08/24 07:03:04;;;;;;;;;;;;;;;;;;4964993;28;19922;-80
2023/08/24 07:05:29;;;;;;;;;;;;;;;;;;4963911;28;19928;-81
2023/08/24 07:07:54;;;;;;;;;;;;;;;;;;4946665;28;20325;-81
2023/08/24 07:10:20;;;;;;;;;;;;;;;;;;4957762;28;19918;-80
2023/08/24 07:12:45;;;;;;;;;;;;;;;;;;4965891;28;19917;-81
2023/08/24 07:15:11;;;;;;;;;;;;;;;;;;4973504;28;19924;-82
2023/08/24 07:17:39;;;;;;;;;;;;;;;;;;4948492;28;19961;-80
2023/08/24 07:20:14;;;;;;;;;;;;;;;;;;4960765;28;19917;-80
2023/08/24 07:22:39;;;;;;;;;;;;;;;;;;4965430;28;19954;-80
2023/08/24 07:25:05;;;;;;;;;;;;;;;;;;4956013;28;20012;-81
2023/08/24 07:27:33;;;;;;;;;;;;;;;;;;4971978;28;20044;-81
2023/08/24 07:29:59;;;;;;;;;;;;;;;;;;4973701;28;20293;-81
2023/08/24 07:32:26;;;;;;;;;;;;;;;;;;4971005;28;19925;-80
2023/08/24 07:34:51;;;;;;;;;;;;;;;;;;4972628;28;19925;-80
2023/08/24 07:37:17;;;;;;;;;;;;;;;;;;4964473;28;19917;-79
2023/08/24 07:39:42;;;;;;;;;;;;;;;;;;4978248;28;19922;-81
2023/08/24 07:42:07;;;;;;;;;;;;;;;;;;4961732;28;19956;-80
2023/08/24 07:44:40;;;;;;;;;;;;;;;;;;4957261;28;19925;-80
2023/08/24 07:47:05;;;;;;;;;;;;;;;;;;4964382;28;20375;-80
2023/08/24 07:49:31;;;;;;;;;;;;;;;;;;4957735;28;19918;-80
2023/08/24 07:51:58;;;;;;;;;;;;;;;;;;4956651;28;19965;-81
2023/08/24 07:54:23;;;;;;;;;;;;;;;;;;4955425;28;19922;-80
2023/08/24 07:56:49;;;;;;;;;;;;;;;;;;4965395;28;19944;-81
2023/08/24 07:59:17;;;;;;;;;;;;;;;;;;4947216;28;19937;-80
2023/08/24 08:01:42;;;;;;;;;;;;;;;;;;4955222;28;19940;-80
2023/08/24 08:04:07;;;;;;;;;;;;;;;;;;4961921;28;19925;-80
2023/08/24 08:06:32;;;;;;;;;;;;;;;;;;4976302;28;20001;-81
2023/08/24 08:08:58;;;;;;;;;;;;;;;;;;4972421;28;19922;-80
2023/08/24 08:11:23;;;;;;;;;;;;;;;;;;4971256;28;20012;-81
2023/08/24 08:13:54;;;;;;;;;;;;;;;;;;4957304;28;19997;-81
2023/08/24 08:16:19;;;;;;;;;;;;;;;;;;4969574;28;20008;-80
2023/08/24 08:18:44;;;;;;;;;;;;;;;;;;4957011;28;20335;-81
2023/08/24 08:21:14;;;;;;;;;;;;;;;;;;4965766;28;19921;-80
2023/08/24 08:23:39;;;;;;;;;;;;;;;;;;4970937;28;19993;-80
2023/08/24 08:26:09;;;;;;;;;;;;;;;;;;4964946;28;20005;-79
2023/08/24 08:28:35;;;;;;;;;;;;;;;;;;4980223;28;20358;-80
2023/08/24 08:31:00;;;;;;;;;;;;;;;;;;4971910;28;19917;-81
2023/08/24 08:33:25;;;;;;;;;;;;;;;;;;4965087;28;20322;-80
2023/08/24 08:35:51;;;;;;;;;;;;;;;;;;4975743;28;19925;-79
2023/08/24 08:38:21;;;;;;;;;;;;;;;;;;4954187;28;20759;-80
2023/08/24 08:40:47;;;;;;;;;;;;;;;;;;4955852;28;20001;-79
2023/08/24 08:43:13;;;;;;;;;;;;;;;;;;4977126;28;20421;-80
2023/08/24 08:45:38;;;;;;;;;;;;;;;;;;4958744;28;19925;-79
2023/08/24 08:48:05;;;;;;;;;;;;;;;;;;4980581;28;20005;-80
2023/08/24 08:50:31;;;;;;;;;;;;;;;;;;4978930;28;20025;-80
2023/08/24 08:52:58;;;;;;;;;;;;;;;;;;4981053;28;20428;-80
2023/08/24 08:55:23;;;;;;;;;;;;;;;;;;4965183;28;20327;-80
2023/08/24 08:57:49;;;;;;;;;;;;;;;;;;4947910;28;19932;-79
2023/08/24 09:00:17;;;;;;;;;;;;;;;;;;4964843;28;20844;-80
2023/08/24 09:02:43;;;;;;;;;;;;;;;;;;4980670;28;20366;-80
2023/08/24 09:05:09;;;;;;;;;;;;;;;;;;4964750;28;19944;-80
2023/08/24 09:07:34;;;;;;;;;;;;;;;;;;4955163;28;20294;-80
2023/08/24 09:09:59;;;;;;;;;;;;;;;;;;4979400;28;19972;-79
2023/08/24 09:12:25;;;;;;;;;;;;;;;;;;4963708;28;19914;-80
2023/08/24 09:14:50;;;;;;;;;;;;;;;;;;4970540;28;20535;-79
2023/08/24 09:17:21;;;;;;;;;;;;;;;;;;4946055;28;20437;-80
2023/08/24 09:19:47;;;;;;;;;;;;;;;;;;4963894;28;19917;-80
2023/08/24 09:22:12;;;;;;;;;;;;;;;;;;4956131;28;19918;-80
2023/08/24 09:24:37;;;;;;;;;;;;;;;;;;4957791;28;19914;-81
2023/08/24 09:27:21;;;;;;;;;;;;;;;;;;4974781;28;20394;-81
2023/08/24 09:29:50;;;;;;;;;;;;;;;;;;4956669;28;19918;-80
2023/08/24 09:32:15;;;;;;;;;;;;;;;;;;4973240;28;19924;-80
2023/08/24 09:34:43;;;;;;;;;;;;;;;;;;4958844;28;19914;-81
2023/08/24 09:37:18;;;;;;;;;;;;;;;;;;4958212;28;20453;-80
2023/08/24 09:39:43;;;;;;;;;;;;;;;;;;4960144;28;19918;-81
2023/08/24 09:42:09;;;;;;;;;;;;;;;;;;4956547;28;19914;-82
2023/08/24 09:44:34;;;;;;;;;;;;;;;;;;4957857;28;20389;-81
2023/08/24 09:47:11;;;;;;;;;;;;;;;;;;4983500;28;19972;-81
2023/08/24 09:49:36;;;;;;;;;;;;;;;;;;4989433;28;19917;-79
2023/08/24 09:52:01;;;;;;;;;;;;;;;;;;4978036;28;20286;-80
2023/08/24 09:54:28;;;;;;;;;;;;;;;;;;4975185;28;19917;-82
2023/08/24 09:56:54;;;;;;;;;;;;;;;;;;4961233;28;19957;-81
2023/08/24 09:59:21;;;;;;;;;;;;;;;;;;4974408;28;20374;-81
2023/08/24 10:01:48;;;;;;;;;;;;;;;;;;4973618;28;19996;-81
2023/08/24 10:04:23;;;;;;;;;;;;;;;;;;4963828;28;20405;-81
2023/08/24 10:06:49;;;;;;;;;;;;;;;;;;4959618;28;20362;-81
2023/08/24 10:09:26;;;;;;;;;;;;;;;;;;4954933;28;20070;-81
2023/08/24 10:11:56;;;;;;;;;;;;;;;;;;4966083;28;19922;-80
2023/08/24 10:14:29;;;;;;;;;;;;;;;;;;4973317;28;19925;-80
2023/08/24 10:16:55;;;;;;;;;;;;;;;;;;4962722;28;20465;-80
2023/08/24 10:19:20;;;;;;;;;;;;;;;;;;4951928;28;19917;-80
2023/08/24 10:21:45;;;;;;;;;;;;;;;;;;4962911;28;20372;-81
2023/08/24 10:24:11;;;;;;;;;;;;;;;;;;4970250;28;19918;-81
2023/08/24 10:26:39;;;;;;;;;;;;;;;;;;4979986;28;21057;-80
2023/08/24 10:29:05;;;;;;;;;;;;;;;;;;4957026;28;19925;-79
2023/08/24 10:31:31;;;;;;;;;;;;;;;;;;4973479;28;19917;-81
2023/08/24 10:33:56;;;;;;;;;;;;;;;;;;4961965;28;20270;-80
2023/08/24 10:36:21;;;;;;;;;;;;;;;;;;4959370;28;19917;-80
2023/08/24 10:38:47;;;;;;;;;;;;;;;;;;4959413;28;19945;-80
2023/08/24 10:41:13;;;;;;;;;;;;;;;;;;4968542;28;19936;-80
2023/08/24 10:43:39;;;;;;;;;;;;;;;;;;4948949;28;19921;-81
2023/08/24 10:46:05;;;;;;;;;;;;;;;;;;4961635;28;19917;-80
2023/08/24 10:48:40;;;;;;;;;;;;;;;;;;4966910;28;19921;-80
2023/08/24 10:51:27;;;;;;;;;;;;;;;;;;4989071;28;20382;-80
2023/08/24 10:53:52;;;;;;;;;;;;;;;;;;4974441;28;19922;-80
2023/08/24 10:56:18;;;;;;;;;;;;;;;;;;4971538;28;19969;-81
2023/08/24 10:58:44;;;;;;;;;;;;;;;;;;4978777;28;20325;-82
2023/08/24 11:01:19;;;;;;;;;;;;;;;;;;4965882;28;19925;-82
2023/08/24 11:03:50;;;;;;;;;;;;;;;;;;4961297;28;19917;-82
2023/08/24 11:06:25;;;;;;;;;;;;;;;;;;4966548;28;19920;-81
2023/08/24 11:09:04;;;;;;;;;;;;;;;;;;4960443;28;19925;-80
2023/08/24 11:11:30;;;;;;;;;;;;;;;;;;4961101;28;19942;-79
2023/08/24 11:14:15;;;;;;;;;;;;;;;;;;4973476;28;20340;-79
2023/08/24 11:16:41;;;;;;;;;;;;;;;;;;4955072;28;19949;-81
2023/08/24 11:19:06;;;;;;;;;;;;;;;;;;4957530;28;19914;-80
2023/08/24 11:21:33;;;;;;;;;;;;;;;;;;4963126;28;20901;-79
2023/08/24 11:23:59;;;;;;;;;;;;;;;;;;4964770;28;19957;-81
2023/08/24 11:26:24;;;;;;;;;;;;;;;;;;4963615;28;19949;-81
2023/08/24 11:28:49;;;;;;;;;;;;;;;;;;4976078;28;19922;-81
2023/08/24 11:31:14;;;;;;;;;;;;;;;;;;4964812;28;19918;-80
2023/08/24 11:33:43;;;;;;;;;;;;;;;;;;4976325;28;19964;-80
2023/08/24 11:36:08;;;;;;;;;;;;;;;;;;4970794;28;19917;-81
2023/08/24 11:38:40;;;;;;;;;;;;;;;;;;4966334;28;20036;-82
2023/08/24 11:41:12;;;;;;;;;;;;;;;;;;4986546;28;19918;-81
2023/08/24 11:43:38;;;;;;;;;;;;;;;;;;4972045;28;19960;-81
2023/08/24 11:46:03;;;;;;;;;;;;;;;;;;4975179;28;20397;-82
2023/08/24 11:48:29;;;;;;;;;;;;;;;;;;4969936;28;19918;-82
2023/08/24 11:50:59;;;;;;;;;;;;;;;;;;4955244;28;19914;-81
2023/08/24 11:53:24;;;;;;;;;;;;;;;;;;4964730;28;20046;-81
2023/08/24 11:55:52;;;;;;;;;;;;;;;;;;4969108;28;20901;-81
2023/08/24 11:58:18;;;;;;;;;;;;;;;;;;4962788;28;19918;-81
2023/08/24 12:00:43;;;;;;;;;;;;;;;;;;4973332;28;20417;-81
2023/08/24 12:03:09;;;;;;;;;;;;;;;;;;4961860;28;19925;-81
2023/08/24 12:05:34;;;;;;;;;;;;;;;;;;4975250;28;19918;-81
2023/08/24 12:08:00;;;;;;;;;;;;;;;;;;4972139;28;19933;-80
2023/08/24 12:10:25;;;;;;;;;;;;;;;;;;4980593;28;19917;-81
2023/08/24 12:13:00;;;;;;;;;;;;;;;;;;4971797;28;19922;-80
2023/08/24 12:15:27;;;;;;;;;;;;;;;;;;4954597;28;19917;-80
2023/08/24 12:17:56;;;;;;;;;;;;;;;;;;4954086;28;20397;-80
2023/08/24 12:20:22;;;;;;;;;;;;;;;;;;4959911;28;19922;-80
2023/08/24 12:22:54;;;;;;;;;;;;;;;;;;4970862;28;20005;-81
2023/08/24 12:25:23;;;;;;;;;;;;;;;;;;4978447;28;20326;-81
2023/08/24 12:27:48;;;;;;;;;;;;;;;;;;4965049;28;19918;-81
2023/08/24 12:30:13;;;;;;;;;;;;;;;;;;4956325;28;19914;-80
2023/08/24 12:32:43;;;;;;;;;;;;;;;;;;4980722;28;19922;-81
2023/08/24 12:35:09;;;;;;;;;;;;;;;;;;4979202;28;20000;-81
2023/08/24 12:37:35;;;;;;;;;;;;;;;;;;4953496;28;20366;-82
2023/08/24 12:40:01;;;;;;;;;;;;;;;;;;4981619;28;20012;-81
2023/08/24 12:42:27;;;;;;;;;;;;;;;;;;4976083;28;20013;-81
2023/08/24 12:44:52;;;;;;;;;;;;;;;;;;4956603;28;20011;-81
2023/08/24 12:47:17;;;;;;;;;;;;;;;;;;4956473;28;20369;-82
2023/08/24 12:49:43;;;;;;;;;;;;;;;;;;4978733;28;19922;-81
2023/08/24 12:52:08;;;;;;;;;;;;;;;;;;4955887;28;20024;-82
2023/08/24 12:54:33;;;;;;;;;;;;;;;;;;4950026;28;19945;-81
2023/08/24 12:56:59;;;;;;;;;;;;;;;;;;4970484;28;19917;-82
2023/08/24 12:59:24;;;;;;;;;;;;;;;;;;4959394;28;19924;-81
2023/08/24 13:01:49;;;;;;;;;;;;;;;;;;4959491;28;19914;-82
2023/08/24 13:04:15;;;;;;;;;;;;;;;;;;4958596;28;19926;-82
2023/08/24 13:06:40;;;;;;;;;;;;;;;;;;4947450;28;19922;-83
2023/08/24 13:09:06;;;;;;;;;;;;;;;;;;4969349;28;20020;-82
2023/08/24 13:11:31;;;;;;;;;;;;;;;;;;4969451;28;19972;-82
2023/08/24 13:13:57;;;;;;;;;;;;;;;;;;4956876;28;20277;-82
2023/08/24 13:16:22;;;;;;;;;;;;;;;;;;4962634;28;19957;-81
2023/08/24 13:18:47;;;;;;;;;;;;;;;;;;4980656;28;19914;-80
2023/08/24 13:21:13;;;;;;;;;;;;;;;;;;4968891;28;20012;-80
2023/08/24 13:23:38;;;;;;;;;;;;;;;;;;4967798;28;19925;-80
2023/08/24 13:26:03;;;;;;;;;;;;;;;;;;4955692;28;19974;-81
2023/08/24 13:28:29;;;;;;;;;;;;;;;;;;4961731;28;19949;-81
2023/08/24 13:30:54;;;;;;;;;;;;;;;;;;4967835;28;19918;-81
2023/08/24 13:33:20;;;;;;;;;;;;;;;;;;4979500;28;19965;-81
2023/08/24 13:35:45;;;;;;;;;;;;;;;;;;4982602;28;19918;-81
2023/08/24 13:38:11;;;;;;;;;;;;;;;;;;4968184;28;20714;-80
2023/08/24 13:40:36;;;;;;;;;;;;;;;;;;4963880;28;20630;-81
2023/08/24 13:43:01;;;;;;;;;;;;;;;;;;4965116;28;19917;-81
2023/08/24 13:45:26;;;;;;;;;;;;;;;;;;4973518;28;20360;-81
2023/08/24 13:47:52;;;;;;;;;;;;;;;;;;4967509;28;19979;-82
2023/08/24 13:50:17;;;;;;;;;;;;;;;;;;4973880;28;19917;-81
2023/08/24 13:52:45;;;;;;;;;;;;;;;;;;4964216;28;19938;-81
2023/08/24 13:55:10;;;;;;;;;;;;;;;;;;4948728;28;19924;-82
2023/08/24 13:57:36;;;;;;;;;;;;;;;;;;4958881;28;20322;-81
2023/08/24 14:00:03;;;;;;;;;;;;;;;;;;4973809;28;19918;-81
2023/08/24 14:02:29;;;;;;;;;;;;;;;;;;4982577;28;19921;-82
2023/08/24 14:04:57;;;;;;;;;;;;;;;;;;4959251;28;19932;-82
2023/08/24 14:07:22;;;;;;;;;;;;;;;;;;4987327;28;19918;-82
2023/08/24 14:09:48;;;;;;;;;;;;;;;;;;4958967;28;19914;-82
2023/08/24 14:12:13;;;;;;;;;;;;;;;;;;4959157;28;20020;-82
2023/08/24 14:14:38;;;;;;;;;;;;;;;;;;4966236;28;19922;-82
2023/08/24 14:17:03;;;;;;;;;;;;;;;;;;4948397;28;20358;-81
2023/08/24 14:19:29;;;;;;;;;;;;;;;;;;4971954;28;20028;-82
2023/08/24 14:21:54;;;;;;;;;;;;;;;;;;4962621;28;19918;-81
2023/08/24 14:24:19;;;;;;;;;;;;;;;;;;4976097;28;19918;-81
2023/08/24 14:26:45;;;;;;;;;;;;;;;;;;4973702;28;20304;-82
2023/08/24 14:29:10;;;;;;;;;;;;;;;;;;4960371;28;19923;-82
2023/08/24 14:31:36;;;;;;;;;;;;;;;;;;4977545;28;20044;-81
2023/08/24 14:34:04;;;;;;;;;;;;;;;;;;4956603;28;19929;-81
2023/08/24 14:36:29;;;;;;;;;;;;;;;;;;4972986;28;20374;-82
2023/08/24 14:38:55;;;;;;;;;;;;;;;;;;4964217;28;19925;-81
2023/08/24 14:41:20;;;;;;;;;;;;;;;;;;4972226;28;19993;-82
2023/08/24 14:43:48;;;;;;;;;;;;;;;;;;4988275;28;20373;-81
2023/08/24 14:46:13;;;;;;;;;;;;;;;;;;4960589;28;19929;-81
2023/08/24 14:48:39;;;;;;;;;;;;;;;;;;4958147;28;20286;-81
2023/08/24 14:51:04;;;;;;;;;;;;;;;;;;4971853;28;19950;-81
2023/08/24 14:53:29;;;;;;;;;;;;;;;;;;4975080;28;20009;-81
2023/08/24 14:55:55;;;;;;;;;;;;;;;;;;4956074;28;19993;-81
2023/08/24 14:58:29;;;;;;;;;;;;;;;;;;4983476;28;20300;-81
2023/08/24 15:00:56;;;;;;;;;;;;;;;;;;4974999;28;20380;-81
2023/08/24 15:03:22;;;;;;;;;;;;;;;;;;4959086;28;20390;-82
2023/08/24 15:06:06;;;;;;;;;;;;;;;;;;4963264;28;19935;-81
2023/08/24 15:08:32;;;;;;;;;;;;;;;;;;4974035;28;19922;-81
2023/08/24 15:10:58;;;;;;;;;;;;;;;;;;4955116;28;19989;-81
2023/08/24 15:13:23;;;;;;;;;;;;;;;;;;4965923;28;19929;-81
2023/08/24 15:15:49;;;;;;;;;;;;;;;;;;4957437;28;19968;-81
2023/08/24 15:18:14;;;;;;;;;;;;;;;;;;4979805;28;19925;-80
2023/08/24 15:20:39;;;;;;;;;;;;;;;;;;4956980;28;19918;-81
2023/08/24 15:23:06;;;;;;;;;;;;;;;;;;4965887;28;19925;-82
2023/08/24 15:25:31;;;;;;;;;;;;;;;;;;4976494;28;20361;-81
2023/08/24 15:27:59;;;;;;;;;;;;;;;;;;4972215;28;19926;-81
2023/08/24 15:30:25;;;;;;;;;;;;;;;;;;4962818;28;20425;-81
2023/08/24 15:32:50;;;;;;;;;;;;;;;;;;4955021;28;19922;-81
2023/08/24 15:35:15;;;;;;;;;;;;;;;;;;4988170;28;19953;-82
2023/08/24 15:37:41;;;;;;;;;;;;;;;;;;4972421;28;19964;-82
2023/08/24 15:40:07;;;;;;;;;;;;;;;;;;4957004;28;19917;-81
2023/08/24 15:42:33;;;;;;;;;;;;;;;;;;4972712;28;19921;-81
2023/08/24 15:44:58;;;;;;;;;;;;;;;;;;4964714;28;19917;-82
2023/08/24 15:47:31;;;;;;;;;;;;;;;;;;4959214;28;20016;-81
2023/08/24 15:49:56;;;;;;;;;;;;;;;;;;4963980;28;19921;-82
2023/08/24 15:52:21;;;;;;;;;;;;;;;;;;4987448;28;19914;-81
2023/08/24 15:54:47;;;;;;;;;;;;;;;;;;4972616;28;19925;-81
2023/08/24 15:57:12;;;;;;;;;;;;;;;;;;4959627;28;19925;-82
2023/08/24 15:59:38;;;;;;;;;;;;;;;;;;4957868;28;19924;-81
2023/08/24 16:02:04;;;;;;;;;;;;;;;;;;4963814;28;20271;-81
2023/08/24 16:04:29;;;;;;;;;;;;;;;;;;4949306;28;20296;-82
2023/08/24 16:06:55;;;;;;;;;;;;;;;;;;4973116;28;19918;-81
2023/08/24 16:09:20;;;;;;;;;;;;;;;;;;4980635;28;19926;-82
2023/08/24 16:11:45;;;;;;;;;;;;;;;;;;4972428;28;19918;-81
2023/08/24 16:14:11;;;;;;;;;;;;;;;;;;4955529;28;19921;-81
2023/08/24 16:16:37;;;;;;;;;;;;;;;;;;4964847;28;19980;-82
2023/08/24 16:19:02;;;;;;;;;;;;;;;;;;4957636;28;19918;-82
2023/08/24 16:21:30;;;;;;;;;;;;;;;;;;4954245;28;20008;-82
2023/08/24 16:23:56;;;;;;;;;;;;;;;;;;4950330;28;19917;-81
2023/08/24 16:26:21;;;;;;;;;;;;;;;;;;4956580;28;19914;-82
2023/08/24 16:28:50;;;;;;;;;;;;;;;;;;4964588;28;19918;-80
2023/08/24 16:31:15;;;;;;;;;;;;;;;;;;4965040;28;19980;-80
2023/08/24 16:33:41;;;;;;;;;;;;;;;;;;4965768;28;19918;-81
2023/08/24 16:36:07;;;;;;;;;;;;;;;;;;4957951;28;20297;-81
2023/08/24 16:38:32;;;;;;;;;;;;;;;;;;4971081;28;19937;-80
2023/08/24 16:40:57;;;;;;;;;;;;;;;;;;4968165;28;19925;-81